createdAt,value
2019-04-22T00:01:27.067Z,93.80
2019-04-22T00:04:00.499Z,93.20
2019-04-22T00:06:44.042Z,92.70
2019-04-22T00:09:20.939Z,92.30
2019-04-22T00:11:54.306Z,92.30
2019-04-22T00:14:13.060Z,92.30
2019-04-22T00:19:20.694Z,92.60
2019-04-22T00:21:50.213Z,92.60
2019-04-22T00:24:18.692Z,92.80
2019-04-22T00:26:50.033Z,93.00
2019-04-22T00:29:39.434Z,93.50
2019-04-22T00:32:05.024Z,93.70
2019-04-22T00:34:34.177Z,94.30
2019-04-22T00:37:11.015Z,94.60
2019-04-22T00:42:08.346Z,94.80
2019-04-22T00:44:40.340Z,95.00
2019-04-22T00:47:07.489Z,95.70
2019-04-22T00:50:06.339Z,96.30
2019-04-22T00:52:09.577Z,97.10
2019-04-22T00:54:41.535Z,97.90
2019-04-22T00:57:08.727Z,98.50
2019-04-22T00:59:40.451Z,99.20
2019-04-22T01:02:13.118Z,99.90
2019-04-22T01:04:39.261Z,99.90
2019-04-22T01:07:13.084Z,99.90
2019-04-22T01:09:38.939Z,99.90
2019-04-22T01:12:13.509Z,99.90
2019-04-22T01:14:42.579Z,99.90
2019-04-22T01:17:06.008Z,99.90
2019-04-22T01:19:47.263Z,99.90
2019-04-22T01:22:17.342Z,99.90
2019-04-22T01:24:40.767Z,99.90
2019-04-22T01:27:11.502Z,99.90
2019-04-22T01:29:42.420Z,99.90
2019-04-22T01:31:58.219Z,99.90
2019-04-22T01:34:49.330Z,99.90
2019-04-22T01:37:20.326Z,99.90
2019-04-22T01:39:57.287Z,99.90
2019-04-22T01:42:29.935Z,99.90
2019-04-22T01:44:50.867Z,99.90
2019-04-22T01:47:31.343Z,99.90
2019-04-22T01:50:04.383Z,99.90
2019-04-22T01:52:20.323Z,99.90
2019-04-22T01:54:58.561Z,99.90
2019-04-22T01:57:24.213Z,99.90
2019-04-22T01:59:52.034Z,99.90
2019-04-22T02:02:30.387Z,99.90
2019-04-22T02:05:02.788Z,99.90
2019-04-22T02:07:29.439Z,99.90
2019-04-22T02:09:55.118Z,99.90
2019-04-22T02:12:25.901Z,99.90
2019-04-22T02:14:57.809Z,99.90
2019-04-22T02:17:31.556Z,99.90
2019-04-22T02:19:57.471Z,99.90
2019-04-22T02:22:44.255Z,99.90
2019-04-22T02:24:59.121Z,99.90
2019-04-22T02:27:33.853Z,99.90
2019-04-22T02:29:58.230Z,99.90
2019-04-22T02:32:48.522Z,99.90
2019-04-22T02:35:11.587Z,99.90
2019-04-22T02:37:27.730Z,99.90
2019-04-22T02:40:14.006Z,99.90
2019-04-22T02:42:23.534Z,99.90
2019-04-22T02:45:19.097Z,99.90
2019-04-22T02:47:31.592Z,99.90
2019-04-22T02:50:07.389Z,99.90
2019-04-22T02:57:39.985Z,99.90
2019-04-22T03:02:53.032Z,99.90
2019-04-22T03:05:08.940Z,99.90
2019-04-22T03:10:09.114Z,99.90
2019-04-22T03:17:38.294Z,99.90
2019-04-22T03:20:17.851Z,99.90
2019-04-22T03:22:38.536Z,99.90
2019-04-22T03:27:35.402Z,99.90
2019-04-22T03:42:52.009Z,99.90
2019-04-22T03:47:43.581Z,99.90
2019-04-22T03:50:28.018Z,99.90
2019-04-22T03:52:38.804Z,99.90
2019-04-22T04:00:17.422Z,99.90
2019-04-22T04:05:29.545Z,99.90
2019-04-22T04:10:30.207Z,99.90
2019-04-22T04:12:53.720Z,99.90
2019-04-22T04:17:51.855Z,99.90
2019-04-22T04:20:24.339Z,99.90
2019-04-22T04:25:26.705Z,99.90
2019-04-22T04:40:20.898Z,99.90
2019-04-22T04:50:18.258Z,99.90
2019-04-22T04:55:22.083Z,99.90
2019-04-22T04:57:57.631Z,99.90
2019-04-22T05:05:20.791Z,99.90
2019-04-22T05:15:18.584Z,99.90
2019-04-22T05:17:55.001Z,99.90
2019-04-22T05:20:24.152Z,99.90
2019-04-22T05:27:45.344Z,99.90
2019-04-22T05:30:23.415Z,99.90
2019-04-22T05:32:43.278Z,99.90
2019-04-22T05:35:14.589Z,99.90
2019-04-22T05:37:50.365Z,99.70
2019-04-22T05:40:20.249Z,99.10
2019-04-22T05:42:44.191Z,98.50
2019-04-22T05:45:23.092Z,98.40
2019-04-22T05:47:46.157Z,98.40
2019-04-22T05:50:13.058Z,98.20
2019-04-22T05:52:55.251Z,97.30
2019-04-22T05:55:52.368Z,97.20
2019-04-22T05:57:57.711Z,97.00
2019-04-22T06:01:01.626Z,97.10
2019-04-22T06:02:57.236Z,96.50
2019-04-22T06:05:32.192Z,95.60
2019-04-22T06:08:02.529Z,95.50
2019-04-22T06:10:39.919Z,95.30
2019-04-22T06:13:00.795Z,96.10
2019-04-22T06:15:33.906Z,96.80
2019-04-22T06:20:45.456Z,98.00
2019-04-22T06:23:12.659Z,98.80
2019-04-22T06:28:26.692Z,99.90
2019-04-22T06:30:43.202Z,99.90
2019-04-22T06:33:19.198Z,99.90
2019-04-22T06:35:59.008Z,99.80
2019-04-22T06:41:04.067Z,99.90
2019-04-22T06:45:40.182Z,99.90
2019-04-22T06:48:19.649Z,99.90
2019-04-22T06:53:16.853Z,99.90
2019-04-22T06:55:48.227Z,99.90
2019-04-22T06:58:15.266Z,99.90
2019-04-22T07:05:47.566Z,99.90
2019-04-22T07:08:39.306Z,99.60
2019-04-22T07:10:47.822Z,98.80
2019-04-22T07:13:23.395Z,98.70
2019-04-22T07:18:24.678Z,98.10
2019-04-22T07:20:55.420Z,98.00
2019-04-22T07:23:21.535Z,96.70
2019-04-22T07:25:45.178Z,96.90
2019-04-22T07:28:15.581Z,96.80
2019-04-22T07:30:56.122Z,95.50
2019-04-22T07:38:25.723Z,96.00
2019-04-22T07:41:02.138Z,95.50
2019-04-22T07:43:32.509Z,94.00
2019-04-22T07:45:49.423Z,93.40
2019-04-22T07:48:33.296Z,92.40
2019-04-22T07:50:56.364Z,92.50
2019-04-22T07:53:24.081Z,90.30
2019-04-22T07:55:54.942Z,88.50
2019-04-22T07:58:26.044Z,88.30
2019-04-22T08:00:59.102Z,87.80
2019-04-22T08:03:32.077Z,82.90
2019-04-22T08:08:25.760Z,77.80
2019-04-22T08:10:57.923Z,74.40
2019-04-22T08:13:24.827Z,76.80
2019-04-22T08:16:19.885Z,75.50
2019-04-22T08:18:31.253Z,74.40
2019-04-22T08:20:56.773Z,73.50
2019-04-22T08:25:55.490Z,73.70
2019-04-22T08:30:56.693Z,72.30
2019-04-22T08:33:29.049Z,73.70
2019-04-22T08:36:06.418Z,74.90
2019-04-22T08:39:25.311Z,71.60
2019-04-22T08:41:18.171Z,71.50
2019-04-22T08:43:47.675Z,69.30
2019-04-22T08:46:17.346Z,67.90
2019-04-22T08:48:47.745Z,67.20
2019-04-22T08:51:18.514Z,66.10
2019-04-22T08:53:51.866Z,66.30
2019-04-22T08:56:29.480Z,65.60
2019-04-22T08:58:50.224Z,62.10
2019-04-22T09:01:17.749Z,57.50
2019-04-22T09:03:46.926Z,54.70
2019-04-22T09:06:22.643Z,54.50
2019-04-22T09:08:49.421Z,51.30
2019-04-22T09:11:21.631Z,48.30
2019-04-22T09:13:50.430Z,49.30
2019-04-22T09:16:19.423Z,48.70
2019-04-22T09:18:48.575Z,47.10
2019-04-22T09:21:18.744Z,46.10
2019-04-22T09:23:57.166Z,45.40
2019-04-22T09:26:16.646Z,44.70
2019-04-22T09:28:54.851Z,45.10
2019-04-22T09:31:33.041Z,45.40
2019-04-22T09:33:45.541Z,43.80
2019-04-22T09:36:22.409Z,44.30
2019-04-22T09:41:24.473Z,44.80
2019-04-22T09:43:53.447Z,44.90
2019-04-22T09:46:19.813Z,42.60
2019-04-22T09:48:50.232Z,41.40
2019-04-22T09:51:19.006Z,41.60
2019-04-22T09:53:57.790Z,41.50
2019-04-22T09:56:18.081Z,43.30
2019-04-22T09:58:50.482Z,39.50
2019-04-22T10:01:24.376Z,40.20
2019-04-22T10:03:56.736Z,41.30
2019-04-22T10:06:33.561Z,41.20
2019-04-22T10:09:02.237Z,40.50
2019-04-22T10:11:27.982Z,38.50
2019-04-22T10:13:53.646Z,38.10
2019-04-22T10:16:27.681Z,38.90
2019-04-22T10:18:52.881Z,38.90
2019-04-22T10:21:31.827Z,38.50
2019-04-22T10:23:50.426Z,36.90
2019-04-22T10:26:26.495Z,37.20
2019-04-22T10:28:55.814Z,37.30
2019-04-22T10:31:23.906Z,37.50
2019-04-22T10:33:48.220Z,39.20
2019-04-22T10:35:57.405Z,37.20
2019-04-22T10:38:26.494Z,37.00
2019-04-22T10:40:56.481Z,37.90
2019-04-22T10:43:25.512Z,38.60
2019-04-22T10:45:54.517Z,35.70
2019-04-22T10:48:24.111Z,35.60
2019-04-22T10:50:54.602Z,36.40
2019-04-22T10:53:23.805Z,38.10
2019-04-22T10:55:52.421Z,39.20
2019-04-22T10:58:22.866Z,36.60
2019-04-22T11:00:52.352Z,35.70
2019-04-22T11:03:22.468Z,35.70
2019-04-22T11:05:53.935Z,35.30
2019-04-22T11:08:31.949Z,35.20
2019-04-22T11:11:09.389Z,34.80
2019-04-22T11:13:22.296Z,33.80
2019-04-22T11:15:52.557Z,34.40
2019-04-22T11:18:21.511Z,35.50
2019-04-22T11:20:51.413Z,32.70
2019-04-22T11:23:20.582Z,33.00
2019-04-22T11:25:50.013Z,32.20
2019-04-22T11:28:19.934Z,32.90
2019-04-22T11:30:50.206Z,32.70
2019-04-22T11:33:20.708Z,33.40
2019-04-22T11:35:50.100Z,32.50
2019-04-22T11:38:19.180Z,33.10
2019-04-22T11:41:07.231Z,32.20
2019-04-22T11:43:36.329Z,32.70
2019-04-22T11:46:07.308Z,33.10
2019-04-22T11:48:36.004Z,34.00
2019-04-22T11:51:04.494Z,31.90
2019-04-22T11:53:32.888Z,30.60
2019-04-22T11:56:02.671Z,31.80
2019-04-22T11:58:33.014Z,32.50
2019-04-22T12:01:02.969Z,31.40
2019-04-22T12:03:31.705Z,31.80
2019-04-22T12:06:01.885Z,33.00
2019-04-22T12:08:31.176Z,32.10
2019-04-22T12:11:03.839Z,31.00
2019-04-22T12:13:30.288Z,31.60
2019-04-22T12:15:59.077Z,31.70
2019-04-22T12:18:29.154Z,30.40
2019-04-22T12:20:59.226Z,30.90
2019-04-22T12:23:29.404Z,30.00
2019-04-22T12:26:04.209Z,30.60
2019-04-22T12:28:30.915Z,29.50
2019-04-22T12:30:59.653Z,30.10
2019-04-22T12:33:29.453Z,30.30
2019-04-22T12:35:58.249Z,29.30
2019-04-22T12:38:27.452Z,30.10
2019-04-22T12:41:00.367Z,30.10
2019-04-22T12:43:27.855Z,29.30
2019-04-22T12:45:56.635Z,30.40
2019-04-22T12:48:25.464Z,30.40
2019-04-22T12:50:56.438Z,32.10
2019-04-22T12:53:27.640Z,30.10
2019-04-22T12:55:55.468Z,29.30
2019-04-22T12:58:25.548Z,29.30
2019-04-22T13:00:54.665Z,29.10
2019-04-22T13:03:26.393Z,30.00
2019-04-22T13:05:53.893Z,29.60
2019-04-22T13:08:23.530Z,29.50
2019-04-22T13:11:00.332Z,30.60
2019-04-22T13:13:23.024Z,31.50
2019-04-22T13:15:53.113Z,31.80
2019-04-22T13:18:31.601Z,33.20
2019-04-22T13:20:52.860Z,33.00
2019-04-22T13:23:22.182Z,32.20
2019-04-22T13:25:52.354Z,29.80
2019-04-22T13:28:21.312Z,29.70
2019-04-22T13:30:50.866Z,30.20
2019-04-22T13:33:19.311Z,30.20
2019-04-22T13:35:49.799Z,30.10
2019-04-22T13:38:19.262Z,30.30
2019-04-22T13:41:00.916Z,30.70
2019-04-22T13:43:18.776Z,31.40
2019-04-22T13:45:49.786Z,32.80
2019-04-22T13:48:40.052Z,31.60
2019-04-22T13:51:21.879Z,32.80
2019-04-22T13:56:24.806Z,32.80
2019-04-22T13:58:37.073Z,33.90
2019-04-22T14:00:52.155Z,31.00
2019-04-22T14:03:35.767Z,31.60
2019-04-22T14:06:06.892Z,31.30
2019-04-22T14:08:37.460Z,30.50
2019-04-22T14:11:20.709Z,31.60
2019-04-22T14:13:37.754Z,31.00
2019-04-22T14:16:08.878Z,30.80
2019-04-22T14:18:38.968Z,29.40
2019-04-22T14:21:09.005Z,29.00
2019-04-22T14:23:38.478Z,30.60
2019-04-22T14:26:07.493Z,30.90
2019-04-22T14:28:37.352Z,30.50
2019-04-22T14:31:06.659Z,31.40
2019-04-22T14:33:36.273Z,32.20
2019-04-22T14:36:05.326Z,32.10
2019-04-22T14:38:34.698Z,33.90
2019-04-22T14:41:05.905Z,34.00
2019-04-22T14:44:43.035Z,33.70
2019-04-22T14:46:27.840Z,31.60
2019-04-22T14:49:01.374Z,31.50
2019-04-22T14:51:22.265Z,31.00
2019-04-22T14:53:57.727Z,29.50
2019-04-22T14:56:06.548Z,29.50
2019-04-22T14:58:35.502Z,30.00
2019-04-22T15:01:06.821Z,30.00
2019-04-22T15:03:39.900Z,29.50
2019-04-22T15:06:06.342Z,29.70
2019-04-22T15:08:35.384Z,30.00
2019-04-22T15:11:05.820Z,29.30
2019-04-22T15:13:33.902Z,29.20
2019-04-22T15:16:13.910Z,29.40
2019-04-22T15:18:53.783Z,30.50
2019-04-22T15:21:27.366Z,29.70
2019-04-22T15:23:56.375Z,31.20
2019-04-22T15:26:26.453Z,31.20
2019-04-22T15:28:55.509Z,30.50
2019-04-22T15:31:24.902Z,30.50
2019-04-22T15:33:54.382Z,30.50
2019-04-22T15:36:24.103Z,30.10
2019-04-22T15:38:53.421Z,29.80
2019-04-22T15:41:22.951Z,30.00
2019-04-22T15:43:52.152Z,30.80
2019-04-22T15:46:23.403Z,32.30
2019-04-22T15:48:53.741Z,31.30
2019-04-22T15:51:22.704Z,31.00
2019-04-22T15:53:51.953Z,31.30
2019-04-22T15:56:21.123Z,31.60
2019-04-22T15:58:51.337Z,32.40
2019-04-22T16:01:27.540Z,32.10
2019-04-22T16:03:50.438Z,32.60
2019-04-22T16:06:19.964Z,32.30
2019-04-22T16:08:49.743Z,32.70
2019-04-22T16:11:19.926Z,33.20
2019-04-22T16:13:48.612Z,34.70
2019-04-22T16:16:18.551Z,33.50
2019-04-22T16:18:48.477Z,35.00
2019-04-22T16:21:30.166Z,36.20
2019-04-22T16:23:52.157Z,36.60
2019-04-22T16:26:42.348Z,37.30
2019-04-22T16:29:13.515Z,37.20
2019-04-22T16:31:43.023Z,38.70
2019-04-22T16:34:13.270Z,39.30
2019-04-22T16:36:42.839Z,39.40
2019-04-22T16:39:15.111Z,40.10
2019-04-22T16:41:44.530Z,39.10
2019-04-22T16:44:14.364Z,39.40
2019-04-22T16:46:43.755Z,40.00
2019-04-22T16:49:15.820Z,40.80
2019-04-22T16:51:45.721Z,41.10
2019-04-22T16:54:15.949Z,41.60
2019-04-22T16:56:45.798Z,41.30
2019-04-22T16:59:14.953Z,41.80
2019-04-22T17:01:46.286Z,41.60
2019-04-22T17:04:25.893Z,41.80
2019-04-22T17:06:57.488Z,42.10
2019-04-22T17:09:26.033Z,41.30
2019-04-22T17:11:54.430Z,42.50
2019-04-22T17:14:29.568Z,42.60
2019-04-22T17:16:52.945Z,42.90
2019-04-22T17:19:21.757Z,43.20
2019-04-22T17:21:50.172Z,43.00
2019-04-22T17:24:19.503Z,43.90
2019-04-22T17:26:48.535Z,45.00
2019-04-22T17:29:16.926Z,45.60
2019-04-22T17:31:50.928Z,45.80
2019-04-22T17:34:15.877Z,45.90
2019-04-22T17:36:46.233Z,47.00
2019-04-22T17:39:30.120Z,47.70
2019-04-22T17:42:07.206Z,48.20
2019-04-22T17:44:59.196Z,47.90
2019-04-22T17:47:16.335Z,47.40
2019-04-22T17:49:53.817Z,48.90
2019-04-22T17:52:24.968Z,49.10
2019-04-22T17:57:23.827Z,50.00
2019-04-22T17:59:51.798Z,50.30
2019-04-22T18:02:22.111Z,50.90
2019-04-22T18:04:40.073Z,51.20
2019-04-22T18:07:31.508Z,51.10
2019-04-22T18:12:34.302Z,51.80
2019-04-22T18:14:59.644Z,52.20
2019-04-22T18:17:32.404Z,52.40
2019-04-22T18:19:54.642Z,52.70
2019-04-22T18:22:19.922Z,52.50
2019-04-22T18:24:53.010Z,53.20
2019-04-22T18:27:43.032Z,52.80
2019-04-22T18:29:52.022Z,52.60
2019-04-22T18:32:17.583Z,52.60
2019-04-22T18:34:49.310Z,52.40
2019-04-22T18:37:23.678Z,52.30
2019-04-22T18:39:58.495Z,52.10
2019-04-22T18:42:23.900Z,52.40
2019-04-22T18:45:09.893Z,52.90
2019-04-22T18:47:23.767Z,53.40
2019-04-22T18:49:53.606Z,53.90
2019-04-22T18:52:35.568Z,54.50
2019-04-22T18:55:02.649Z,55.10
2019-04-22T18:57:47.984Z,55.30
2019-04-22T19:00:04.259Z,55.20
2019-04-22T19:02:34.029Z,55.10
2019-04-22T19:05:12.150Z,55.40
2019-04-22T19:08:00.645Z,55.40
2019-04-22T19:10:31.225Z,55.40
2019-04-22T19:13:17.437Z,55.60
2019-04-22T19:15:24.446Z,55.80
2019-04-22T19:18:02.173Z,56.20
2019-04-22T19:20:32.938Z,56.20
2019-04-22T19:22:57.502Z,56.60
2019-04-22T19:25:25.849Z,56.60
2019-04-22T19:28:01.278Z,56.70
2019-04-22T19:30:35.008Z,56.70
2019-04-22T19:33:06.408Z,56.70
2019-04-22T19:35:26.872Z,56.80
2019-04-22T19:37:57.629Z,57.00
2019-04-22T19:40:58.154Z,57.20
2019-04-22T19:43:16.036Z,57.30
2019-04-22T19:45:40.708Z,57.70
2019-04-22T19:48:25.513Z,57.80
2019-04-22T19:50:52.701Z,57.80
2019-04-22T19:53:19.593Z,58.20
2019-04-22T19:55:47.009Z,58.20
2019-04-22T19:58:14.694Z,58.40
2019-04-22T20:00:45.680Z,58.70
2019-04-22T20:03:33.367Z,59.00
2019-04-22T20:05:56.238Z,59.10
2019-04-22T20:08:26.328Z,59.50
2019-04-22T20:10:59.140Z,60.00
2019-04-22T20:13:30.985Z,60.40
2019-04-22T20:15:50.914Z,60.60
2019-04-22T20:18:34.413Z,60.70
2019-04-22T20:21:00.474Z,61.00
2019-04-22T20:23:24.283Z,61.40
2019-04-22T20:25:51.062Z,61.70
2019-04-22T20:28:33.064Z,61.60
2019-04-22T20:30:55.389Z,62.00
2019-04-22T20:33:35.318Z,62.00
2019-04-22T20:35:58.337Z,62.70
2019-04-22T20:38:29.741Z,61.70
2019-04-22T20:40:55.289Z,61.60
2019-04-22T20:43:35.725Z,61.60
2019-04-22T20:46:02.421Z,61.50
2019-04-22T20:48:28.614Z,61.30
2019-04-22T20:50:58.124Z,61.10
2019-04-22T20:53:34.411Z,61.00
2019-04-22T20:56:02.658Z,60.60
2019-04-22T20:58:33.717Z,60.80
2019-04-22T21:00:55.609Z,61.00
2019-04-22T21:03:24.356Z,61.30
2019-04-22T21:05:53.007Z,61.60
2019-04-22T21:08:30.548Z,61.70
2019-04-22T21:10:53.497Z,62.00
2019-04-22T21:13:23.127Z,62.30
2019-04-22T21:16:04.106Z,62.40
2019-04-22T21:18:27.491Z,62.40
2019-04-22T21:21:03.851Z,62.50
2019-04-22T21:23:29.142Z,62.80
2019-04-22T21:26:02.346Z,62.50
2019-04-22T21:28:34.226Z,61.10
2019-04-22T21:30:59.691Z,60.00
2019-04-22T21:33:25.473Z,59.20
2019-04-22T21:38:35.928Z,57.90
2019-04-22T21:41:07.860Z,57.50
2019-04-22T21:43:39.808Z,57.10
2019-04-22T21:46:08.480Z,56.60
2019-04-22T21:48:37.208Z,56.30
2019-04-22T21:51:08.602Z,56.20
2019-04-22T21:53:43.508Z,56.10
2019-04-22T21:56:27.258Z,56.10
2019-04-22T21:58:52.998Z,56.10
2019-04-22T22:03:55.723Z,56.60
2019-04-22T22:06:15.163Z,57.00
2019-04-22T22:08:59.677Z,57.50
2019-04-22T22:11:26.030Z,58.20
2019-04-22T22:13:56.377Z,58.40
2019-04-22T22:16:18.967Z,59.10
2019-04-22T22:19:00.919Z,59.60
2019-04-22T22:21:40.695Z,60.00
2019-04-22T22:24:00.990Z,59.90
2019-04-22T22:26:19.222Z,60.30
2019-04-22T22:31:34.717Z,60.80
2019-04-22T22:34:04.052Z,61.10
2019-04-22T22:36:23.771Z,61.10
2019-04-22T22:38:55.124Z,61.10
2019-04-22T22:41:07.801Z,60.90
2019-04-22T22:43:42.005Z,60.10
2019-04-22T22:46:20.460Z,59.80
2019-04-22T22:49:01.383Z,59.60
2019-04-22T22:51:34.340Z,59.40
2019-04-22T22:54:01.597Z,59.70
2019-04-22T22:56:39.290Z,59.70
2019-04-22T22:59:01.760Z,60.80
2019-04-22T23:01:31.782Z,60.20
2019-04-22T23:03:55.855Z,60.00
2019-04-22T23:06:32.818Z,60.30
2019-04-22T23:09:04.114Z,60.70
2019-04-22T23:11:50.812Z,60.80
2019-04-22T23:14:02.604Z,61.10
2019-04-22T23:16:18.181Z,61.70
2019-04-22T23:18:57.526Z,62.30
2019-04-22T23:21:33.215Z,62.50
2019-04-22T23:24:20.346Z,63.10
2019-04-22T23:26:43.168Z,63.20
2019-04-22T23:29:10.419Z,63.30
2019-04-22T23:31:44.168Z,63.40
2019-04-22T23:34:26.596Z,63.50
2019-04-22T23:37:06.868Z,64.50
2019-04-22T23:39:51.860Z,63.80
2019-04-22T23:42:19.513Z,63.80
2019-04-22T23:44:43.369Z,64.20
2019-04-22T23:47:14.887Z,64.50
2019-04-22T23:49:53.303Z,64.50
2019-04-22T23:52:25.589Z,65.00
2019-04-22T23:54:57.150Z,65.10
2019-04-22T23:57:30.780Z,65.40
